Etusivu
METAR-TAF:

METAR-TAF

Lentoasemat :

Copper Harbor, Michigan, Yhdysvallat

Leveyspiiri: 47-28-01N, Pituuspiiri: 087-52-30W, korkeus merenpinnasta: 190 m

Tämänhetkinen sää

Tämä raportti tehtiin 56 minuuttia sitten, kello 18.51 UTC
Tuuli 6 kn eri suunnista
Lämpötila 17°C
Kosteus 82%
Ilmanpaine 999 hPa

METAR: KP59 241851Z AUTO VRB06KT 17/14 A2949 RMK AO1 SLP982 T01670144

Aika: 15:47 (19:47 UTC)


TAF: puuttuu

Säähavainnot ja -ennusteet yli 4000 lentoasemalta (METAR- ja TAF-raportit).

Käytössä olevat sääasemat on merkitty karttaan keltaisilla ja punaisilla pisteillä.

Aseta hiiri pisteen päälle nähdäksesi sääaseman nimen.

Klikkaa sitten nähdäksesi säähavainnot ja -ennusteet.

Kartan vaihtaminen: klikkaa mustalla rastilla varustettuja vihreitä pisteitä, niin voit zoomata sisään; viivalla varustettua vihreää pistettä, niin voit zoomata ulos tai vihreitä nuolia, niin pääset viereisille kartoille.


METAR-TAF: